SKLT Airport Information

Runway Information
Runway 03 Length 6168 ft width 131 ft
Elevation 314 ft Threshold 0 ft Heading 21
Runway 21 Length 6168 ft Width 131 ft
Elevation 313 ft Threshold 0 ft Heading 201
Airport Frequencies
Type APP Name LETICIA AP Frequency 119.1 MHZ
Type RDO Name LETICIA RD Frequency 127.5 MHZ
Type TWR Name TWR Frequency 118.1 MHZ
Airport Navaids
Type VOR-DME Name Leticia Frequency 117500 KHZ
Type NDB Name Leticia Frequency 407 KHZ
Airport Weather Information & NOTAM
ADDS - METARS form results

(2116 UTC 16 August 2018)
 
METAR text: SKLT 162100Z 22004KT 9999 BKN010 SCT080 24/24 A2997 RMK VCSH/SE
Conditions at: SKLT (LETICIA/VASQUEZ , CO) observed 2100 UTC 16 August 2018
Temperature: 24.0°C (75°F)
Dewpoint: 24.0°C (75°F) [RH = 100%]
Pressure (altimeter): 29.97 inches Hg (1015.0 mb)
Winds: from the SW (220 degrees) at 5 MPH (4 knots; 2.1 m/s)
Visibility: 6 or more miles (10+ km)
Ceiling: 1000 feet AGL
Clouds: broken clouds at 1000 feet AGL
scattered clouds at 8000 feet AGL
Weather: no significant weather observed at this time